sensor_id;sensor_type;location;lat;lon;timestamp;P1;durP1;ratioP1;P2;durP2;ratioP2
59854;SDS011;45732;52.850;6.896;2023-06-10T00:01:29;8.13;;;4.93;;
59854;SDS011;45732;52.850;6.896;2023-06-10T00:03:55;10.40;;;5.75;;
59854;SDS011;45732;52.850;6.896;2023-06-10T00:06:20;10.50;;;5.18;;
59854;SDS011;45732;52.850;6.896;2023-06-10T00:08:49;10.48;;;5.32;;
59854;SDS011;45732;52.850;6.896;2023-06-10T00:11:16;11.68;;;5.20;;
59854;SDS011;45732;52.850;6.896;2023-06-10T00:13:42;11.40;;;4.72;;
59854;SDS011;45732;52.850;6.896;2023-06-10T00:16:07;9.23;;;5.00;;
59854;SDS011;45732;52.850;6.896;2023-06-10T00:18:33;9.27;;;5.47;;
59854;SDS011;45732;52.850;6.896;2023-06-10T00:21:02;12.13;;;5.35;;
59854;SDS011;45732;52.850;6.896;2023-06-10T00:23:30;11.00;;;5.53;;
59854;SDS011;45732;52.850;6.896;2023-06-10T00:25:59;10.88;;;6.18;;
59854;SDS011;45732;52.850;6.896;2023-06-10T00:28:25;9.63;;;5.32;;
59854;SDS011;45732;52.850;6.896;2023-06-10T00:30:51;13.02;;;5.75;;
59854;SDS011;45732;52.850;6.896;2023-06-10T00:33:17;11.50;;;5.60;;
59854;SDS011;45732;52.850;6.896;2023-06-10T00:35:42;10.25;;;5.82;;
59854;SDS011;45732;52.850;6.896;2023-06-10T00:38:08;10.38;;;5.55;;
59854;SDS011;45732;52.850;6.896;2023-06-10T00:40:40;9.02;;;5.35;;
59854;SDS011;45732;52.850;6.896;2023-06-10T00:45:32;10.73;;;5.90;;
59854;SDS011;45732;52.850;6.896;2023-06-10T00:47:58;10.52;;;6.13;;
59854;SDS011;45732;52.850;6.896;2023-06-10T00:50:26;10.80;;;6.10;;
59854;SDS011;45732;52.850;6.896;2023-06-10T00:52:52;12.70;;;6.55;;
59854;SDS011;45732;52.850;6.896;2023-06-10T00:55:19;9.77;;;6.07;;
59854;SDS011;45732;52.850;6.896;2023-06-10T00:57:45;10.15;;;6.63;;
59854;SDS011;45732;52.850;6.896;2023-06-10T01:00:13;12.23;;;6.70;;
59854;SDS011;45732;52.850;6.896;2023-06-10T01:02:40;13.90;;;6.95;;
59854;SDS011;45732;52.850;6.896;2023-06-10T01:05:07;10.68;;;7.07;;
59854;SDS011;45732;52.850;6.896;2023-06-10T01:10:32;15.27;;;7.22;;
59854;SDS011;45732;52.850;6.896;2023-06-10T01:13:17;11.68;;;7.07;;
59854;SDS011;45732;52.850;6.896;2023-06-10T01:15:48;11.50;;;6.75;;
59854;SDS011;45732;52.850;6.896;2023-06-10T01:18:15;12.55;;;7.43;;
59854;SDS011;45732;52.850;6.896;2023-06-10T01:20:42;13.40;;;7.07;;
59854;SDS011;45732;52.850;6.896;2023-06-10T01:23:11;11.80;;;7.07;;
59854;SDS011;45732;52.850;6.896;2023-06-10T01:25:39;10.68;;;7.22;;
59854;SDS011;45732;52.850;6.896;2023-06-10T01:28:22;11.52;;;6.90;;
59854;SDS011;45732;52.850;6.896;2023-06-10T01:31:15;11.20;;;7.28;;
59854;SDS011;45732;52.850;6.896;2023-06-10T01:33:43;12.98;;;7.43;;
59854;SDS011;45732;52.850;6.896;2023-06-10T01:36:11;11.23;;;7.03;;
59854;SDS011;45732;52.850;6.896;2023-06-10T01:38:42;12.43;;;7.40;;
59854;SDS011;45732;52.850;6.896;2023-06-10T01:41:09;12.40;;;7.25;;
59854;SDS011;45732;52.850;6.896;2023-06-10T01:43:37;11.07;;;7.13;;
59854;SDS011;45732;52.850;6.896;2023-06-10T01:46:04;14.85;;;7.82;;
59854;SDS011;45732;52.850;6.896;2023-06-10T01:48:30;12.32;;;7.13;;
59854;SDS011;45732;52.850;6.896;2023-06-10T01:50:56;11.30;;;7.63;;
59854;SDS011;45732;52.850;6.896;2023-06-10T01:53:22;13.65;;;7.80;;
59854;SDS011;45732;52.850;6.896;2023-06-10T01:55:48;12.55;;;7.78;;
59854;SDS011;45732;52.850;6.896;2023-06-10T01:58:14;13.00;;;8.13;;
59854;SDS011;45732;52.850;6.896;2023-06-10T02:00:39;11.10;;;7.63;;
59854;SDS011;45732;52.850;6.896;2023-06-10T02:03:05;11.25;;;7.40;;
59854;SDS011;45732;52.850;6.896;2023-06-10T02:05:31;13.70;;;7.68;;
59854;SDS011;45732;52.850;6.896;2023-06-10T02:07:57;17.17;;;7.95;;
59854;SDS011;45732;52.850;6.896;2023-06-10T02:10:23;13.05;;;7.50;;
59854;SDS011;45732;52.850;6.896;2023-06-10T02:12:48;12.18;;;7.32;;
59854;SDS011;45732;52.850;6.896;2023-06-10T02:15:14;13.00;;;7.60;;
59854;SDS011;45732;52.850;6.896;2023-06-10T02:17:40;13.52;;;7.90;;
59854;SDS011;45732;52.850;6.896;2023-06-10T02:20:06;11.73;;;7.63;;
59854;SDS011;45732;52.850;6.896;2023-06-10T02:22:33;11.80;;;7.43;;
59854;SDS011;45732;52.850;6.896;2023-06-10T02:24:59;14.23;;;7.60;;
59854;SDS011;45732;52.850;6.896;2023-06-10T02:27:25;10.73;;;7.22;;
59854;SDS011;45732;52.850;6.896;2023-06-10T02:29:50;13.68;;;7.10;;
59854;SDS011;45732;52.850;6.896;2023-06-10T02:32:16;10.48;;;7.22;;
59854;SDS011;45732;52.850;6.896;2023-06-10T02:34:42;12.93;;;7.40;;
59854;SDS011;45732;52.850;6.896;2023-06-10T02:37:09;11.35;;;7.13;;
59854;SDS011;45732;52.850;6.896;2023-06-10T02:39:35;11.63;;;7.15;;
59854;SDS011;45732;52.850;6.896;2023-06-10T02:42:00;10.98;;;6.82;;
59854;SDS011;45732;52.850;6.896;2023-06-10T02:44:26;12.50;;;7.68;;
59854;SDS011;45732;52.850;6.896;2023-06-10T02:46:52;12.20;;;6.82;;
59854;SDS011;45732;52.850;6.896;2023-06-10T02:49:17;12.73;;;7.00;;
59854;SDS011;45732;52.850;6.896;2023-06-10T02:51:43;10.45;;;6.88;;
59854;SDS011;45732;52.850;6.896;2023-06-10T02:54:09;13.07;;;6.88;;
59854;SDS011;45732;52.850;6.896;2023-06-10T02:56:35;13.10;;;7.28;;
59854;SDS011;45732;52.850;6.896;2023-06-10T02:59:01;12.18;;;7.20;;
59854;SDS011;45732;52.850;6.896;2023-06-10T03:01:27;11.50;;;7.30;;
59854;SDS011;45732;52.850;6.896;2023-06-10T03:03:53;11.35;;;6.43;;
59854;SDS011;45732;52.850;6.896;2023-06-10T03:06:21;10.32;;;6.65;;
59854;SDS011;45732;52.850;6.896;2023-06-10T03:08:49;12.70;;;7.00;;
59854;SDS011;45732;52.850;6.896;2023-06-10T03:11:15;10.48;;;6.53;;
59854;SDS011;45732;52.850;6.896;2023-06-10T03:13:40;13.25;;;6.80;;
59854;SDS011;45732;52.850;6.896;2023-06-10T03:16:06;13.10;;;7.18;;
59854;SDS011;45732;52.850;6.896;2023-06-10T03:18:32;13.45;;;7.22;;
59854;SDS011;45732;52.850;6.896;2023-06-10T03:20:58;12.48;;;6.70;;
59854;SDS011;45732;52.850;6.896;2023-06-10T03:23:24;12.88;;;7.10;;
59854;SDS011;45732;52.850;6.896;2023-06-10T03:25:50;13.55;;;6.80;;
59854;SDS011;45732;52.850;6.896;2023-06-10T03:28:15;11.35;;;6.60;;
59854;SDS011;45732;52.850;6.896;2023-06-10T03:30:41;13.98;;;6.30;;
59854;SDS011;45732;52.850;6.896;2023-06-10T03:33:07;11.63;;;6.55;;
59854;SDS011;45732;52.850;6.896;2023-06-10T03:35:33;13.68;;;6.68;;
59854;SDS011;45732;52.850;6.896;2023-06-10T03:37:59;13.15;;;6.38;;
59854;SDS011;45732;52.850;6.896;2023-06-10T03:40:25;15.63;;;6.45;;
59854;SDS011;45732;52.850;6.896;2023-06-10T03:42:51;12.75;;;6.55;;
59854;SDS011;45732;52.850;6.896;2023-06-10T03:45:17;15.40;;;6.55;;
59854;SDS011;45732;52.850;6.896;2023-06-10T03:47:42;12.50;;;6.30;;
59854;SDS011;45732;52.850;6.896;2023-06-10T03:50:09;16.13;;;6.60;;
59854;SDS011;45732;52.850;6.896;2023-06-10T03:52:35;12.57;;;6.30;;
59854;SDS011;45732;52.850;6.896;2023-06-10T03:55:01;11.45;;;6.32;;
59854;SDS011;45732;52.850;6.896;2023-06-10T03:57:27;10.73;;;6.30;;
59854;SDS011;45732;52.850;6.896;2023-06-10T03:59:53;10.90;;;5.88;;
59854;SDS011;45732;52.850;6.896;2023-06-10T04:02:20;11.75;;;6.22;;
59854;SDS011;45732;52.850;6.896;2023-06-10T04:04:46;13.05;;;6.70;;
59854;SDS011;45732;52.850;6.896;2023-06-10T04:07:12;11.20;;;6.53;;
59854;SDS011;45732;52.850;6.896;2023-06-10T04:09:39;13.68;;;6.43;;
59854;SDS011;45732;52.850;6.896;2023-06-10T04:12:05;10.95;;;6.47;;
59854;SDS011;45732;52.850;6.896;2023-06-10T04:14:33;13.35;;;6.53;;
59854;SDS011;45732;52.850;6.896;2023-06-10T04:17:01;14.30;;;6.40;;
59854;SDS011;45732;52.850;6.896;2023-06-10T04:19:27;12.23;;;6.40;;
59854;SDS011;45732;52.850;6.896;2023-06-10T04:21:53;13.88;;;5.97;;
59854;SDS011;45732;52.850;6.896;2023-06-10T04:24:19;10.45;;;5.95;;
59854;SDS011;45732;52.850;6.896;2023-06-10T04:26:45;11.57;;;6.22;;
59854;SDS011;45732;52.850;6.896;2023-06-10T04:29:11;13.90;;;5.90;;
59854;SDS011;45732;52.850;6.896;2023-06-10T04:31:36;11.35;;;6.30;;
59854;SDS011;45732;52.850;6.896;2023-06-10T04:34:02;14.13;;;6.60;;
59854;SDS011;45732;52.850;6.896;2023-06-10T04:36:28;11.30;;;6.28;;
59854;SDS011;45732;52.850;6.896;2023-06-10T04:38:55;14.77;;;6.47;;
59854;SDS011;45732;52.850;6.896;2023-06-10T04:41:20;12.73;;;6.70;;
59854;SDS011;45732;52.850;6.896;2023-06-10T04:43:47;13.20;;;6.15;;
59854;SDS011;45732;52.850;6.896;2023-06-10T04:46:13;13.57;;;6.22;;
59854;SDS011;45732;52.850;6.896;2023-06-10T04:48:38;14.63;;;6.72;;
59854;SDS011;45732;52.850;6.896;2023-06-10T04:51:05;11.45;;;6.55;;
59854;SDS011;45732;52.850;6.896;2023-06-10T04:53:31;13.27;;;6.90;;
59854;SDS011;45732;52.850;6.896;2023-06-10T04:55:56;12.07;;;6.97;;
59854;SDS011;45732;52.850;6.896;2023-06-10T04:58:22;12.77;;;6.93;;
59854;SDS011;45732;52.850;6.896;2023-06-10T05:00:48;12.48;;;6.43;;
59854;SDS011;45732;52.850;6.896;2023-06-10T05:03:15;14.13;;;6.85;;
59854;SDS011;45732;52.850;6.896;2023-06-10T05:05:40;11.98;;;6.70;;
59854;SDS011;45732;52.850;6.896;2023-06-10T05:08:06;10.90;;;6.57;;
59854;SDS011;45732;52.850;6.896;2023-06-10T05:10:32;14.02;;;6.85;;
59854;SDS011;45732;52.850;6.896;2023-06-10T05:12:59;13.65;;;6.90;;
59854;SDS011;45732;52.850;6.896;2023-06-10T05:15:25;11.20;;;6.25;;
59854;SDS011;45732;52.850;6.896;2023-06-10T05:17:50;15.43;;;6.82;;
59854;SDS011;45732;52.850;6.896;2023-06-10T05:20:16;15.55;;;7.45;;
59854;SDS011;45732;52.850;6.896;2023-06-10T05:22:43;11.63;;;6.38;;
59854;SDS011;45732;52.850;6.896;2023-06-10T05:25:09;12.57;;;6.93;;
59854;SDS011;45732;52.850;6.896;2023-06-10T05:27:35;16.13;;;6.78;;
59854;SDS011;45732;52.850;6.896;2023-06-10T05:30:01;15.25;;;7.30;;
59854;SDS011;45732;52.850;6.896;2023-06-10T05:32:28;14.07;;;6.95;;
59854;SDS011;45732;52.850;6.896;2023-06-10T05:34:54;10.82;;;6.20;;
59854;SDS011;45732;52.850;6.896;2023-06-10T05:37:19;13.65;;;6.68;;
59854;SDS011;45732;52.850;6.896;2023-06-10T05:39:45;15.43;;;6.82;;
59854;SDS011;45732;52.850;6.896;2023-06-10T05:42:11;14.05;;;7.22;;
59854;SDS011;45732;52.850;6.896;2023-06-10T05:44:37;15.15;;;6.43;;
59854;SDS011;45732;52.850;6.896;2023-06-10T05:47:02;14.95;;;7.25;;
59854;SDS011;45732;52.850;6.896;2023-06-10T05:49:28;12.77;;;6.68;;
59854;SDS011;45732;52.850;6.896;2023-06-10T05:51:54;15.40;;;6.85;;
59854;SDS011;45732;52.850;6.896;2023-06-10T05:54:21;13.52;;;6.28;;
59854;SDS011;45732;52.850;6.896;2023-06-10T05:56:47;12.65;;;6.53;;
59854;SDS011;45732;52.850;6.896;2023-06-10T05:59:12;12.43;;;6.70;;
59854;SDS011;45732;52.850;6.896;2023-06-10T06:01:38;13.02;;;6.75;;
59854;SDS011;45732;52.850;6.896;2023-06-10T06:04:04;11.73;;;6.45;;
59854;SDS011;45732;52.850;6.896;2023-06-10T06:06:30;12.02;;;6.93;;
59854;SDS011;45732;52.850;6.896;2023-06-10T06:08:55;12.02;;;6.40;;
59854;SDS011;45732;52.850;6.896;2023-06-10T06:11:21;14.23;;;6.70;;
59854;SDS011;45732;52.850;6.896;2023-06-10T06:13:47;12.57;;;6.32;;
59854;SDS011;45732;52.850;6.896;2023-06-10T06:16:13;13.10;;;6.63;;
59854;SDS011;45732;52.850;6.896;2023-06-10T06:18:39;15.23;;;7.05;;
59854;SDS011;45732;52.850;6.896;2023-06-10T06:21:04;13.75;;;7.40;;
59854;SDS011;45732;52.850;6.896;2023-06-10T06:23:30;11.23;;;6.28;;
59854;SDS011;45732;52.850;6.896;2023-06-10T06:25:56;13.25;;;7.03;;
59854;SDS011;45732;52.850;6.896;2023-06-10T06:28:21;12.98;;;6.63;;
59854;SDS011;45732;52.850;6.896;2023-06-10T06:30:47;13.13;;;7.25;;
59854;SDS011;45732;52.850;6.896;2023-06-10T06:33:13;13.05;;;6.53;;
59854;SDS011;45732;52.850;6.896;2023-06-10T06:35:39;10.88;;;6.47;;
59854;SDS011;45732;52.850;6.896;2023-06-10T06:38:05;12.57;;;6.85;;
59854;SDS011;45732;52.850;6.896;2023-06-10T06:40:31;11.88;;;6.60;;
59854;SDS011;45732;52.850;6.896;2023-06-10T06:42:56;10.98;;;6.10;;
59854;SDS011;45732;52.850;6.896;2023-06-10T06:45:22;13.02;;;6.90;;
59854;SDS011;45732;52.850;6.896;2023-06-10T06:47:48;15.10;;;7.00;;
59854;SDS011;45732;52.850;6.896;2023-06-10T06:50:13;14.23;;;7.22;;
59854;SDS011;45732;52.850;6.896;2023-06-10T06:52:40;13.30;;;6.88;;
59854;SDS011;45732;52.850;6.896;2023-06-10T06:55:06;12.77;;;6.30;;
59854;SDS011;45732;52.850;6.896;2023-06-10T06:57:31;11.65;;;6.65;;
59854;SDS011;45732;52.850;6.896;2023-06-10T06:59:57;13.38;;;6.53;;
59854;SDS011;45732;52.850;6.896;2023-06-10T07:02:23;13.63;;;7.18;;
59854;SDS011;45732;52.850;6.896;2023-06-10T07:04:49;15.75;;;7.68;;
59854;SDS011;45732;52.850;6.896;2023-06-10T07:07:15;11.00;;;7.10;;
59854;SDS011;45732;52.850;6.896;2023-06-10T07:09:41;14.63;;;8.15;;
59854;SDS011;45732;52.850;6.896;2023-06-10T07:12:07;14.55;;;8.07;;
59854;SDS011;45732;52.850;6.896;2023-06-10T07:14:33;14.27;;;8.52;;
59854;SDS011;45732;52.850;6.896;2023-06-10T07:16:58;12.85;;;8.52;;
59854;SDS011;45732;52.850;6.896;2023-06-10T07:19:24;12.40;;;8.07;;
59854;SDS011;45732;52.850;6.896;2023-06-10T07:21:50;14.15;;;9.73;;
59854;SDS011;45732;52.850;6.896;2023-06-10T07:24:15;16.17;;;9.32;;
59854;SDS011;45732;52.850;6.896;2023-06-10T07:26:41;15.18;;;9.60;;
59854;SDS011;45732;52.850;6.896;2023-06-10T07:29:07;14.05;;;9.23;;
59854;SDS011;45732;52.850;6.896;2023-06-10T07:31:32;15.40;;;9.93;;
59854;SDS011;45732;52.850;6.896;2023-06-10T07:33:58;14.48;;;10.15;;
59854;SDS011;45732;52.850;6.896;2023-06-10T07:36:24;15.35;;;10.07;;
59854;SDS011;45732;52.850;6.896;2023-06-10T07:38:52;15.15;;;10.20;;
59854;SDS011;45732;52.850;6.896;2023-06-10T07:41:19;15.10;;;9.90;;
59854;SDS011;45732;52.850;6.896;2023-06-10T07:43:45;16.90;;;10.05;;
59854;SDS011;45732;52.850;6.896;2023-06-10T07:46:11;18.17;;;9.88;;
59854;SDS011;45732;52.850;6.896;2023-06-10T07:48:37;13.88;;;9.38;;
59854;SDS011;45732;52.850;6.896;2023-06-10T07:51:02;15.85;;;10.35;;
59854;SDS011;45732;52.850;6.896;2023-06-10T07:53:28;15.02;;;8.95;;
59854;SDS011;45732;52.850;6.896;2023-06-10T07:55:54;14.52;;;10.02;;
59854;SDS011;45732;52.850;6.896;2023-06-10T07:58:20;13.98;;;8.85;;
59854;SDS011;45732;52.850;6.896;2023-06-10T08:00:47;12.93;;;8.38;;
59854;SDS011;45732;52.850;6.896;2023-06-10T08:03:13;13.27;;;8.90;;
59854;SDS011;45732;52.850;6.896;2023-06-10T08:05:39;12.13;;;9.20;;
59854;SDS011;45732;52.850;6.896;2023-06-10T08:08:05;12.80;;;8.93;;
59854;SDS011;45732;52.850;6.896;2023-06-10T08:10:31;11.80;;;8.85;;
59854;SDS011;45732;52.850;6.896;2023-06-10T08:12:56;12.77;;;8.35;;
59854;SDS011;45732;52.850;6.896;2023-06-10T08:15:22;14.27;;;7.72;;
59854;SDS011;45732;52.850;6.896;2023-06-10T08:17:48;11.60;;;7.30;;
59854;SDS011;45732;52.850;6.896;2023-06-10T08:20:14;11.18;;;6.57;;
59854;SDS011;45732;52.850;6.896;2023-06-10T08:22:39;10.85;;;6.45;;
59854;SDS011;45732;52.850;6.896;2023-06-10T08:25:05;11.85;;;6.88;;
59854;SDS011;45732;52.850;6.896;2023-06-10T08:27:31;10.35;;;6.78;;
59854;SDS011;45732;52.850;6.896;2023-06-10T08:29:57;12.35;;;6.45;;
59854;SDS011;45732;52.850;6.896;2023-06-10T08:32:25;12.18;;;6.43;;
59854;SDS011;45732;52.850;6.896;2023-06-10T08:34:51;9.63;;;5.80;;
59854;SDS011;45732;52.850;6.896;2023-06-10T08:37:17;10.32;;;6.40;;
59854;SDS011;45732;52.850;6.896;2023-06-10T08:39:42;10.07;;;6.35;;
59854;SDS011;45732;52.850;6.896;2023-06-10T08:44:39;11.53;;;5.87;;
59854;SDS011;45732;52.850;6.896;2023-06-10T08:47:13;9.88;;;6.13;;
59854;SDS011;45732;52.850;6.896;2023-06-10T08:49:44;10.27;;;6.05;;
59854;SDS011;45732;52.850;6.896;2023-06-10T08:52:11;9.63;;;5.25;;
59854;SDS011;45732;52.850;6.896;2023-06-10T08:54:49;9.88;;;5.88;;
59854;SDS011;45732;52.850;6.896;2023-06-10T08:57:22;10.32;;;5.35;;
59854;SDS011;45732;52.850;6.896;2023-06-10T08:59:48;11.00;;;5.47;;
59854;SDS011;45732;52.850;6.896;2023-06-10T09:02:14;10.85;;;5.55;;
59854;SDS011;45732;52.850;6.896;2023-06-10T09:04:43;9.93;;;5.68;;
59854;SDS011;45732;52.850;6.896;2023-06-10T09:07:11;11.90;;;6.05;;
59854;SDS011;45732;52.850;6.896;2023-06-10T09:09:39;10.68;;;5.03;;
59854;SDS011;45732;52.850;6.896;2023-06-10T09:12:06;12.68;;;5.20;;
59854;SDS011;45732;52.850;6.896;2023-06-10T09:14:32;10.07;;;5.15;;
59854;SDS011;45732;52.850;6.896;2023-06-10T09:16:58;10.00;;;4.75;;
59854;SDS011;45732;52.850;6.896;2023-06-10T09:19:25;11.32;;;5.20;;
59854;SDS011;45732;52.850;6.896;2023-06-10T09:21:51;9.35;;;5.18;;
59854;SDS011;45732;52.850;6.896;2023-06-10T09:24:17;9.68;;;5.00;;
59854;SDS011;45732;52.850;6.896;2023-06-10T09:26:43;8.35;;;4.38;;
59854;SDS011;45732;52.850;6.896;2023-06-10T09:29:10;9.90;;;4.90;;
59854;SDS011;45732;52.850;6.896;2023-06-10T09:31:38;8.75;;;5.10;;
59854;SDS011;45732;52.850;6.896;2023-06-10T09:34:14;8.27;;;4.15;;
59854;SDS011;45732;52.850;6.896;2023-06-10T09:36:42;7.00;;;4.35;;
59854;SDS011;45732;52.850;6.896;2023-06-10T09:39:15;7.90;;;4.40;;
59854;SDS011;45732;52.850;6.896;2023-06-10T09:41:41;10.13;;;4.93;;
59854;SDS011;45732;52.850;6.896;2023-06-10T09:44:11;7.68;;;4.43;;
59854;SDS011;45732;52.850;6.896;2023-06-10T09:46:41;8.13;;;4.78;;
59854;SDS011;45732;52.850;6.896;2023-06-10T09:49:07;7.57;;;4.07;;
59854;SDS011;45732;52.850;6.896;2023-06-10T09:51:33;8.63;;;4.30;;
59854;SDS011;45732;52.850;6.896;2023-06-10T09:54:01;8.70;;;4.68;;
59854;SDS011;45732;52.850;6.896;2023-06-10T09:56:37;7.38;;;3.63;;
59854;SDS011;45732;52.850;6.896;2023-06-10T09:59:05;9.93;;;4.65;;
59854;SDS011;45732;52.850;6.896;2023-06-10T10:01:31;7.65;;;4.05;;
59854;SDS011;45732;52.850;6.896;2023-06-10T10:03:58;7.72;;;4.18;;
59854;SDS011;45732;52.850;6.896;2023-06-10T10:06:25;7.35;;;4.28;;
59854;SDS011;45732;52.850;6.896;2023-06-10T10:08:52;8.65;;;4.47;;
59854;SDS011;45732;52.850;6.896;2023-06-10T10:11:19;7.55;;;4.15;;
59854;SDS011;45732;52.850;6.896;2023-06-10T10:13:47;7.10;;;3.72;;
59854;SDS011;45732;52.850;6.896;2023-06-10T10:16:16;10.43;;;4.20;;
59854;SDS011;45732;52.850;6.896;2023-06-10T10:18:49;7.85;;;4.38;;
59854;SDS011;45732;52.850;6.896;2023-06-10T10:21:21;7.88;;;3.58;;
59854;SDS011;45732;52.850;6.896;2023-06-10T10:24:33;7.35;;;3.95;;
59854;SDS011;45732;52.850;6.896;2023-06-10T10:26:43;6.90;;;4.00;;
59854;SDS011;45732;52.850;6.896;2023-06-10T10:29:14;6.32;;;3.17;;
59854;SDS011;45732;52.850;6.896;2023-06-10T10:31:48;5.75;;;3.08;;
59854;SDS011;45732;52.850;6.896;2023-06-10T10:34:30;7.57;;;3.17;;
59854;SDS011;45732;52.850;6.896;2023-06-10T10:37:00;6.35;;;3.33;;
59854;SDS011;45732;52.850;6.896;2023-06-10T10:39:26;5.40;;;2.70;;
59854;SDS011;45732;52.850;6.896;2023-06-10T10:41:53;6.47;;;3.15;;
59854;SDS011;45732;52.850;6.896;2023-06-10T10:44:20;7.65;;;3.30;;
59854;SDS011;45732;52.850;6.896;2023-06-10T10:46:49;7.35;;;3.60;;
59854;SDS011;45732;52.850;6.896;2023-06-10T10:49:16;7.68;;;3.20;;
59854;SDS011;45732;52.850;6.896;2023-06-10T10:51:58;9.77;;;3.50;;
59854;SDS011;45732;52.850;6.896;2023-06-10T10:59:57;10.88;;;3.50;;
59854;SDS011;45732;52.850;6.896;2023-06-10T11:02:43;5.60;;;3.20;;
59854;SDS011;45732;52.850;6.896;2023-06-10T11:05:15;7.03;;;3.75;;
59854;SDS011;45732;52.850;6.896;2023-06-10T11:07:51;7.28;;;3.22;;
59854;SDS011;45732;52.850;6.896;2023-06-10T11:10:31;6.43;;;2.92;;
59854;SDS011;45732;52.850;6.896;2023-06-10T11:12:58;8.45;;;3.55;;
59854;SDS011;45732;52.850;6.896;2023-06-10T11:15:24;6.30;;;3.17;;
59854;SDS011;45732;52.850;6.896;2023-06-10T11:31:23;4.78;;;2.70;;
59854;SDS011;45732;52.850;6.896;2023-06-10T11:33:54;6.35;;;2.60;;
59854;SDS011;45732;52.850;6.896;2023-06-10T11:38:47;8.68;;;3.60;;
59854;SDS011;45732;52.850;6.896;2023-06-10T11:41:13;6.13;;;2.70;;
59854;SDS011;45732;52.850;6.896;2023-06-10T11:43:43;8.00;;;3.13;;
59854;SDS011;45732;52.850;6.896;2023-06-10T11:46:09;5.97;;;3.10;;
59854;SDS011;45732;52.850;6.896;2023-06-10T11:48:36;6.40;;;3.50;;
59854;SDS011;45732;52.850;6.896;2023-06-10T11:51:06;6.45;;;2.92;;
59854;SDS011;45732;52.850;6.896;2023-06-10T11:53:33;9.53;;;3.27;;
59854;SDS011;45732;52.850;6.896;2023-06-10T11:55:59;6.00;;;3.20;;
59854;SDS011;45732;52.850;6.896;2023-06-10T11:58:25;5.63;;;2.90;;
59854;SDS011;45732;52.850;6.896;2023-06-10T12:00:51;7.28;;;3.10;;
59854;SDS011;45732;52.850;6.896;2023-06-10T12:03:19;7.20;;;2.95;;
59854;SDS011;45732;52.850;6.896;2023-06-10T12:05:55;5.78;;;2.67;;
59854;SDS011;45732;52.850;6.896;2023-06-10T12:08:27;6.78;;;2.80;;
59854;SDS011;45732;52.850;6.896;2023-06-10T12:10:53;5.13;;;2.75;;
59854;SDS011;45732;52.850;6.896;2023-06-10T12:13:19;5.53;;;2.60;;
59854;SDS011;45732;52.850;6.896;2023-06-10T12:15:45;5.47;;;2.92;;
59854;SDS011;45732;52.850;6.896;2023-06-10T12:18:24;6.80;;;3.08;;
59854;SDS011;45732;52.850;6.896;2023-06-10T12:20:50;6.00;;;3.15;;
59854;SDS011;45732;52.850;6.896;2023-06-10T12:23:16;6.18;;;2.63;;
59854;SDS011;45732;52.850;6.896;2023-06-10T12:25:50;4.65;;;2.33;;
59854;SDS011;45732;52.850;6.896;2023-06-10T12:28:16;4.95;;;2.15;;
59854;SDS011;45732;52.850;6.896;2023-06-10T12:30:45;5.90;;;2.55;;
59854;SDS011;45732;52.850;6.896;2023-06-10T12:33:20;5.18;;;2.33;;
59854;SDS011;45732;52.850;6.896;2023-06-10T12:35:50;5.97;;;2.55;;
59854;SDS011;45732;52.850;6.896;2023-06-10T12:38:24;5.93;;;2.50;;
59854;SDS011;45732;52.850;6.896;2023-06-10T12:40:52;6.45;;;2.40;;
59854;SDS011;45732;52.850;6.896;2023-06-10T12:43:24;5.72;;;2.58;;
59854;SDS011;45732;52.850;6.896;2023-06-10T12:45:51;4.97;;;2.30;;
59854;SDS011;45732;52.850;6.896;2023-06-10T12:48:20;8.60;;;2.40;;
59854;SDS011;45732;52.850;6.896;2023-06-10T12:50:51;5.95;;;2.70;;
59854;SDS011;45732;52.850;6.896;2023-06-10T12:53:17;8.93;;;2.72;;
59854;SDS011;45732;52.850;6.896;2023-06-10T12:55:44;6.90;;;2.10;;
59854;SDS011;45732;52.850;6.896;2023-06-10T12:58:11;4.63;;;1.80;;
59854;SDS011;45732;52.850;6.896;2023-06-10T13:00:38;4.22;;;2.05;;
59854;SDS011;45732;52.850;6.896;2023-06-10T13:03:04;7.63;;;2.78;;
59854;SDS011;45732;52.850;6.896;2023-06-10T13:05:31;6.60;;;2.92;;
59854;SDS011;45732;52.850;6.896;2023-06-10T13:07:58;5.03;;;2.20;;
59854;SDS011;45732;52.850;6.896;2023-06-10T13:10:24;6.70;;;2.40;;
59854;SDS011;45732;52.850;6.896;2023-06-10T13:12:51;6.00;;;2.70;;
59854;SDS011;45732;52.850;6.896;2023-06-10T13:15:17;6.75;;;2.90;;
59854;SDS011;45732;52.850;6.896;2023-06-10T13:17:43;4.60;;;2.50;;
59854;SDS011;45732;52.850;6.896;2023-06-10T13:20:14;7.18;;;3.00;;
59854;SDS011;45732;52.850;6.896;2023-06-10T13:22:40;7.00;;;2.85;;
59854;SDS011;45732;52.850;6.896;2023-06-10T13:25:06;5.30;;;2.95;;
59854;SDS011;45732;52.850;6.896;2023-06-10T13:27:32;7.18;;;2.70;;
59854;SDS011;45732;52.850;6.896;2023-06-10T13:29:59;5.60;;;2.50;;
59854;SDS011;45732;52.850;6.896;2023-06-10T13:32:24;7.28;;;2.85;;
59854;SDS011;45732;52.850;6.896;2023-06-10T13:34:50;4.85;;;2.80;;
59854;SDS011;45732;52.850;6.896;2023-06-10T13:37:16;9.38;;;2.70;;
59854;SDS011;45732;52.850;6.896;2023-06-10T13:39:43;7.15;;;2.95;;
59854;SDS011;45732;52.850;6.896;2023-06-10T13:42:09;6.03;;;2.63;;
59854;SDS011;45732;52.850;6.896;2023-06-10T13:44:34;5.22;;;2.70;;
59854;SDS011;45732;52.850;6.896;2023-06-10T13:47:04;5.93;;;2.65;;
59854;SDS011;45732;52.850;6.896;2023-06-10T13:49:30;5.28;;;2.90;;
59854;SDS011;45732;52.850;6.896;2023-06-10T13:51:56;5.05;;;2.80;;
59854;SDS011;45732;52.850;6.896;2023-06-10T13:54:22;5.43;;;3.03;;
59854;SDS011;45732;52.850;6.896;2023-06-10T13:56:48;6.22;;;3.10;;
59854;SDS011;45732;52.850;6.896;2023-06-10T13:59:13;7.25;;;2.90;;
59854;SDS011;45732;52.850;6.896;2023-06-10T14:01:39;9.25;;;3.20;;
59854;SDS011;45732;52.850;6.896;2023-06-10T14:04:07;9.85;;;3.00;;
59854;SDS011;45732;52.850;6.896;2023-06-10T14:06:33;7.32;;;3.20;;
59854;SDS011;45732;52.850;6.896;2023-06-10T14:08:59;6.38;;;3.28;;
59854;SDS011;45732;52.850;6.896;2023-06-10T14:11:25;6.68;;;3.60;;
59854;SDS011;45732;52.850;6.896;2023-06-10T14:13:51;7.78;;;3.03;;
59854;SDS011;45732;52.850;6.896;2023-06-10T14:16:17;7.82;;;3.30;;
59854;SDS011;45732;52.850;6.896;2023-06-10T14:18:42;6.47;;;3.03;;
59854;SDS011;45732;52.850;6.896;2023-06-10T14:21:08;6.93;;;3.00;;
59854;SDS011;45732;52.850;6.896;2023-06-10T14:23:34;5.82;;;2.80;;
59854;SDS011;45732;52.850;6.896;2023-06-10T14:26:00;9.23;;;2.90;;
59854;SDS011;45732;52.850;6.896;2023-06-10T14:28:27;6.75;;;2.80;;
59854;SDS011;45732;52.850;6.896;2023-06-10T14:30:54;4.35;;;2.67;;
59854;SDS011;45732;52.850;6.896;2023-06-10T14:33:20;7.82;;;3.17;;
59854;SDS011;45732;52.850;6.896;2023-06-10T14:35:45;7.80;;;3.30;;
59854;SDS011;45732;52.850;6.896;2023-06-10T14:38:11;9.48;;;3.65;;
59854;SDS011;45732;52.850;6.896;2023-06-10T14:40:37;5.95;;;2.70;;
59854;SDS011;45732;52.850;6.896;2023-06-10T14:43:02;7.78;;;3.33;;
59854;SDS011;45732;52.850;6.896;2023-06-10T14:45:34;9.52;;;3.42;;
59854;SDS011;45732;52.850;6.896;2023-06-10T14:48:01;6.85;;;2.80;;
59854;SDS011;45732;52.850;6.896;2023-06-10T14:50:26;7.88;;;2.70;;
59854;SDS011;45732;52.850;6.896;2023-06-10T14:52:52;12.32;;;3.20;;
59854;SDS011;45732;52.850;6.896;2023-06-10T14:55:18;5.22;;;2.92;;
59854;SDS011;45732;52.850;6.896;2023-06-10T14:57:43;5.80;;;2.85;;
59854;SDS011;45732;52.850;6.896;2023-06-10T15:00:09;9.02;;;3.10;;
59854;SDS011;45732;52.850;6.896;2023-06-10T15:02:37;5.85;;;3.08;;
59854;SDS011;45732;52.850;6.896;2023-06-10T15:05:03;8.05;;;2.90;;
59854;SDS011;45732;52.850;6.896;2023-06-10T15:07:28;6.93;;;3.13;;